Bilston, United Kingdom
Current Conditions -  °F | °C
As of 7:50 AM on Friday 24 Oct 2014 (Local Time) from EGBB Reporting Station
Broken Clouds Broken Clouds  
Wind Chill: 13°   Ceiling: 800
Heat Index: 13°   Visibility: 6mi
Dew Point: 12°   Wind: 5mph
Humidity: 94%   Direction: 190°S
Pressure: 29.91"   Gusts: NA
Location:  52.56°N, 2.07°W
Report Text: EGBB 240650Z 19004KT 160V220 9999 BKN008 13/12 Q1013
Loading
Personal Weather Stations






























Interactive Weather Map
Tropical Storm Tracking
New forecast layout! Learn more

10-Day Weather Forecast

Advertisements
Track Severe Weather on mobile